sensor_id;sensor_type;location;lat;lon;timestamp;P1;durP1;ratioP1;P2;durP2;ratioP2
25435;SDS011;13363;52.772;-3.890;2022-09-20T00:01:58;3.33;;;2.17;;
25435;SDS011;13363;52.772;-3.890;2022-09-20T00:04:24;3.77;;;2.20;;
25435;SDS011;13363;52.772;-3.890;2022-09-20T00:06:49;2.30;;;2.13;;
25435;SDS011;13363;52.772;-3.890;2022-09-20T00:09:15;2.23;;;2.07;;
25435;SDS011;13363;52.772;-3.890;2022-09-20T00:11:41;2.47;;;2.27;;
25435;SDS011;13363;52.772;-3.890;2022-09-20T00:14:07;2.53;;;2.43;;
25435;SDS011;13363;52.772;-3.890;2022-09-20T00:16:34;2.70;;;2.37;;
25435;SDS011;13363;52.772;-3.890;2022-09-20T00:19:03;2.67;;;2.57;;
25435;SDS011;13363;52.772;-3.890;2022-09-20T00:21:30;3.53;;;2.43;;
25435;SDS011;13363;52.772;-3.890;2022-09-20T00:23:58;4.17;;;2.20;;
25435;SDS011;13363;52.772;-3.890;2022-09-20T00:26:25;2.07;;;1.97;;
25435;SDS011;13363;52.772;-3.890;2022-09-20T00:28:52;6.03;;;2.00;;
25435;SDS011;13363;52.772;-3.890;2022-09-20T00:31:18;3.47;;;2.33;;
25435;SDS011;13363;52.772;-3.890;2022-09-20T00:33:44;2.40;;;2.20;;
25435;SDS011;13363;52.772;-3.890;2022-09-20T00:36:28;2.10;;;2.00;;
25435;SDS011;13363;52.772;-3.890;2022-09-20T00:38:55;1.93;;;1.80;;
25435;SDS011;13363;52.772;-3.890;2022-09-20T00:41:22;2.27;;;2.17;;
25435;SDS011;13363;52.772;-3.890;2022-09-20T00:43:48;2.40;;;2.30;;
25435;SDS011;13363;52.772;-3.890;2022-09-20T00:49:12;2.30;;;2.10;;
25435;SDS011;13363;52.772;-3.890;2022-09-20T00:51:42;2.43;;;2.23;;
25435;SDS011;13363;52.772;-3.890;2022-09-20T00:54:11;2.30;;;2.20;;
25435;SDS011;13363;52.772;-3.890;2022-09-20T00:56:40;2.60;;;2.30;;
25435;SDS011;13363;52.772;-3.890;2022-09-20T00:59:13;2.33;;;2.23;;
25435;SDS011;13363;52.772;-3.890;2022-09-20T01:01:41;3.27;;;2.00;;
25435;SDS011;13363;52.772;-3.890;2022-09-20T01:04:10;2.23;;;2.03;;
25435;SDS011;13363;52.772;-3.890;2022-09-20T01:06:38;2.37;;;2.13;;
25435;SDS011;13363;52.772;-3.890;2022-09-20T01:09:05;2.40;;;2.23;;
25435;SDS011;13363;52.772;-3.890;2022-09-20T01:11:31;3.40;;;2.60;;
25435;SDS011;13363;52.772;-3.890;2022-09-20T01:13:59;3.73;;;2.30;;
25435;SDS011;13363;52.772;-3.890;2022-09-20T01:16:25;2.87;;;2.67;;
25435;SDS011;13363;52.772;-3.890;2022-09-20T01:18:55;2.43;;;2.30;;
25435;SDS011;13363;52.772;-3.890;2022-09-20T01:21:22;3.07;;;2.10;;
25435;SDS011;13363;52.772;-3.890;2022-09-20T01:24:03;2.30;;;2.20;;
25435;SDS011;13363;52.772;-3.890;2022-09-20T01:29:37;2.20;;;1.87;;
25435;SDS011;13363;52.772;-3.890;2022-09-20T01:32:05;4.30;;;2.30;;
25435;SDS011;13363;52.772;-3.890;2022-09-20T01:34:38;2.17;;;2.07;;
25435;SDS011;13363;52.772;-3.890;2022-09-20T01:42:37;2.50;;;2.40;;
25435;SDS011;13363;52.772;-3.890;2022-09-20T01:45:27;2.80;;;2.33;;
25435;SDS011;13363;52.772;-3.890;2022-09-20T01:54:09;2.57;;;2.43;;
25435;SDS011;13363;52.772;-3.890;2022-09-20T02:02:20;2.30;;;2.10;;
25435;SDS011;13363;52.772;-3.890;2022-09-20T02:10:39;2.40;;;2.30;;
25435;SDS011;13363;52.772;-3.890;2022-09-20T02:13:32;2.40;;;2.20;;
25435;SDS011;13363;52.772;-3.890;2022-09-20T02:58:25;2.60;;;2.47;;
25435;SDS011;13363;52.772;-3.890;2022-09-20T03:01:01;2.10;;;1.90;;
25435;SDS011;13363;52.772;-3.890;2022-09-20T03:07:02;3.13;;;2.83;;
25435;SDS011;13363;52.772;-3.890;2022-09-20T03:23:50;2.63;;;2.43;;
25435;SDS011;13363;52.772;-3.890;2022-09-20T03:46:44;2.30;;;2.20;;
25435;SDS011;13363;52.772;-3.890;2022-09-20T04:00:22;2.13;;;2.03;;
25435;SDS011;13363;52.772;-3.890;2022-09-20T04:03:24;2.40;;;2.20;;
25435;SDS011;13363;52.772;-3.890;2022-09-20T04:12:48;2.10;;;2.00;;
25435;SDS011;13363;52.772;-3.890;2022-09-20T04:15:07;2.13;;;2.03;;
25435;SDS011;13363;52.772;-3.890;2022-09-20T04:17:44;1.90;;;1.80;;
25435;SDS011;13363;52.772;-3.890;2022-09-20T04:20:21;2.33;;;1.97;;
25435;SDS011;13363;52.772;-3.890;2022-09-20T04:22:56;2.67;;;2.03;;
25435;SDS011;13363;52.772;-3.890;2022-09-20T04:25:32;2.40;;;2.20;;
25435;SDS011;13363;52.772;-3.890;2022-09-20T04:28:38;2.83;;;2.37;;
25435;SDS011;13363;52.772;-3.890;2022-09-20T04:31:02;2.60;;;2.30;;
25435;SDS011;13363;52.772;-3.890;2022-09-20T04:33:40;2.53;;;2.33;;
25435;SDS011;13363;52.772;-3.890;2022-09-20T04:53:10;2.30;;;1.67;;
25435;SDS011;13363;52.772;-3.890;2022-09-20T04:56:00;2.20;;;2.00;;
25435;SDS011;13363;52.772;-3.890;2022-09-20T04:59:05;2.23;;;2.00;;
25435;SDS011;13363;52.772;-3.890;2022-09-20T05:15:19;2.30;;;2.10;;
25435;SDS011;13363;52.772;-3.890;2022-09-20T05:18:18;5.90;;;2.30;;
25435;SDS011;13363;52.772;-3.890;2022-09-20T05:23:51;2.03;;;1.93;;
25435;SDS011;13363;52.772;-3.890;2022-09-20T05:26:39;2.13;;;2.03;;
25435;SDS011;13363;52.772;-3.890;2022-09-20T05:29:20;1.70;;;1.60;;
25435;SDS011;13363;52.772;-3.890;2022-09-20T05:32:11;2.00;;;1.90;;
25435;SDS011;13363;52.772;-3.890;2022-09-20T05:34:51;2.53;;;2.17;;
25435;SDS011;13363;52.772;-3.890;2022-09-20T05:48:19;2.00;;;1.90;;
25435;SDS011;13363;52.772;-3.890;2022-09-20T05:59:28;2.20;;;2.10;;
25435;SDS011;13363;52.772;-3.890;2022-09-20T06:16:17;1.90;;;1.80;;
25435;SDS011;13363;52.772;-3.890;2022-09-20T06:19:08;2.20;;;2.00;;
25435;SDS011;13363;52.772;-3.890;2022-09-20T06:21:53;3.30;;;2.60;;
25435;SDS011;13363;52.772;-3.890;2022-09-20T06:24:31;2.03;;;1.93;;
25435;SDS011;13363;52.772;-3.890;2022-09-20T06:27:05;1.97;;;1.87;;
25435;SDS011;13363;52.772;-3.890;2022-09-20T06:29:39;3.83;;;2.20;;
25435;SDS011;13363;52.772;-3.890;2022-09-20T06:32:08;2.30;;;2.20;;
25435;SDS011;13363;52.772;-3.890;2022-09-20T06:34:34;2.30;;;2.20;;
25435;SDS011;13363;52.772;-3.890;2022-09-20T06:43:12;2.50;;;2.03;;
25435;SDS011;13363;52.772;-3.890;2022-09-20T06:45:39;2.10;;;2.00;;
25435;SDS011;13363;52.772;-3.890;2022-09-20T06:48:05;2.37;;;2.17;;
25435;SDS011;13363;52.772;-3.890;2022-09-20T06:50:37;2.07;;;1.97;;
25435;SDS011;13363;52.772;-3.890;2022-09-20T06:53:09;2.07;;;1.97;;
25435;SDS011;13363;52.772;-3.890;2022-09-20T06:55:40;2.47;;;2.30;;
25435;SDS011;13363;52.772;-3.890;2022-09-20T06:58:08;2.27;;;2.13;;
25435;SDS011;13363;52.772;-3.890;2022-09-20T07:00:35;2.03;;;1.93;;
25435;SDS011;13363;52.772;-3.890;2022-09-20T07:03:03;2.10;;;2.00;;
25435;SDS011;13363;52.772;-3.890;2022-09-20T07:05:30;2.23;;;2.13;;
25435;SDS011;13363;52.772;-3.890;2022-09-20T07:07:56;2.40;;;2.13;;
25435;SDS011;13363;52.772;-3.890;2022-09-20T07:10:24;2.17;;;2.07;;
25435;SDS011;13363;52.772;-3.890;2022-09-20T07:12:54;2.57;;;2.37;;
25435;SDS011;13363;52.772;-3.890;2022-09-20T07:15:21;2.20;;;2.10;;
25435;SDS011;13363;52.772;-3.890;2022-09-20T07:17:47;2.53;;;2.40;;
25435;SDS011;13363;52.772;-3.890;2022-09-20T07:20:15;2.33;;;2.23;;
25435;SDS011;13363;52.772;-3.890;2022-09-20T07:22:41;2.60;;;2.40;;
25435;SDS011;13363;52.772;-3.890;2022-09-20T07:25:07;2.70;;;2.50;;
25435;SDS011;13363;52.772;-3.890;2022-09-20T07:27:33;2.17;;;2.03;;
25435;SDS011;13363;52.772;-3.890;2022-09-20T07:29:59;2.23;;;2.13;;
25435;SDS011;13363;52.772;-3.890;2022-09-20T07:32:26;2.17;;;2.07;;
25435;SDS011;13363;52.772;-3.890;2022-09-20T07:34:52;2.10;;;2.00;;
25435;SDS011;13363;52.772;-3.890;2022-09-20T07:37:18;2.90;;;2.70;;
25435;SDS011;13363;52.772;-3.890;2022-09-20T07:39:44;3.57;;;2.17;;
25435;SDS011;13363;52.772;-3.890;2022-09-20T07:42:10;2.30;;;2.20;;
25435;SDS011;13363;52.772;-3.890;2022-09-20T07:44:37;2.80;;;2.60;;
25435;SDS011;13363;52.772;-3.890;2022-09-20T07:47:06;2.40;;;2.10;;
25435;SDS011;13363;52.772;-3.890;2022-09-20T07:49:33;2.53;;;2.33;;
25435;SDS011;13363;52.772;-3.890;2022-09-20T07:51:59;2.47;;;2.33;;
25435;SDS011;13363;52.772;-3.890;2022-09-20T07:54:25;2.20;;;2.00;;
25435;SDS011;13363;52.772;-3.890;2022-09-20T07:56:54;2.27;;;2.03;;
25435;SDS011;13363;52.772;-3.890;2022-09-20T07:59:20;2.10;;;1.90;;
25435;SDS011;13363;52.772;-3.890;2022-09-20T08:01:46;2.77;;;2.00;;
25435;SDS011;13363;52.772;-3.890;2022-09-20T08:04:12;3.53;;;2.27;;
25435;SDS011;13363;52.772;-3.890;2022-09-20T08:06:39;2.20;;;2.10;;
25435;SDS011;13363;52.772;-3.890;2022-09-20T08:09:07;2.27;;;2.13;;
25435;SDS011;13363;52.772;-3.890;2022-09-20T08:11:34;2.13;;;2.03;;
25435;SDS011;13363;52.772;-3.890;2022-09-20T08:14:03;2.30;;;2.20;;
25435;SDS011;13363;52.772;-3.890;2022-09-20T08:16:30;2.30;;;2.20;;
25435;SDS011;13363;52.772;-3.890;2022-09-20T08:18:57;3.07;;;2.23;;
25435;SDS011;13363;52.772;-3.890;2022-09-20T08:21:26;2.73;;;2.57;;
25435;SDS011;13363;52.772;-3.890;2022-09-20T08:23:55;2.67;;;2.47;;
25435;SDS011;13363;52.772;-3.890;2022-09-20T08:26:22;3.53;;;2.20;;
25435;SDS011;13363;52.772;-3.890;2022-09-20T08:28:53;2.70;;;2.57;;
25435;SDS011;13363;52.772;-3.890;2022-09-20T08:31:21;2.23;;;2.13;;
25435;SDS011;13363;52.772;-3.890;2022-09-20T08:33:52;2.33;;;2.20;;
25435;SDS011;13363;52.772;-3.890;2022-09-20T08:36:22;2.60;;;2.33;;
25435;SDS011;13363;52.772;-3.890;2022-09-20T08:38:50;2.97;;;2.50;;
25435;SDS011;13363;52.772;-3.890;2022-09-20T08:41:21;3.77;;;2.63;;
25435;SDS011;13363;52.772;-3.890;2022-09-20T08:46:41;2.20;;;2.10;;
25435;SDS011;13363;52.772;-3.890;2022-09-20T08:49:16;2.50;;;2.37;;
25435;SDS011;13363;52.772;-3.890;2022-09-20T08:51:49;2.67;;;2.43;;
25435;SDS011;13363;52.772;-3.890;2022-09-20T08:54:16;2.30;;;2.20;;
25435;SDS011;13363;52.772;-3.890;2022-09-20T08:56:42;2.17;;;2.07;;
25435;SDS011;13363;52.772;-3.890;2022-09-20T08:59:16;2.30;;;2.20;;
25435;SDS011;13363;52.772;-3.890;2022-09-20T09:01:45;2.80;;;2.27;;
25435;SDS011;13363;52.772;-3.890;2022-09-20T09:04:16;2.30;;;2.20;;
25435;SDS011;13363;52.772;-3.890;2022-09-20T09:06:45;2.07;;;1.97;;
25435;SDS011;13363;52.772;-3.890;2022-09-20T09:09:22;2.30;;;2.20;;
25435;SDS011;13363;52.772;-3.890;2022-09-20T09:11:52;2.57;;;2.37;;
25435;SDS011;13363;52.772;-3.890;2022-09-20T09:17:09;2.87;;;2.67;;
25435;SDS011;13363;52.772;-3.890;2022-09-20T09:22:22;2.20;;;2.10;;
25435;SDS011;13363;52.772;-3.890;2022-09-20T09:25:08;2.63;;;2.13;;
25435;SDS011;13363;52.772;-3.890;2022-09-20T09:28:01;2.43;;;2.33;;
25435;SDS011;13363;52.772;-3.890;2022-09-20T09:30:43;2.70;;;2.50;;
25435;SDS011;13363;52.772;-3.890;2022-09-20T09:36:14;3.03;;;2.83;;
25435;SDS011;13363;52.772;-3.890;2022-09-20T09:38:45;2.90;;;2.70;;
25435;SDS011;13363;52.772;-3.890;2022-09-20T09:44:01;2.73;;;2.53;;
25435;SDS011;13363;52.772;-3.890;2022-09-20T09:46:32;3.30;;;3.03;;
25435;SDS011;13363;52.772;-3.890;2022-09-20T09:49:03;2.63;;;2.53;;
25435;SDS011;13363;52.772;-3.890;2022-09-20T09:51:39;2.70;;;2.60;;
25435;SDS011;13363;52.772;-3.890;2022-09-20T09:54:07;3.30;;;3.10;;
25435;SDS011;13363;52.772;-3.890;2022-09-20T09:59:45;2.90;;;2.70;;
25435;SDS011;13363;52.772;-3.890;2022-09-20T10:05:34;3.30;;;3.10;;
25435;SDS011;13363;52.772;-3.890;2022-09-20T10:16:54;2.90;;;2.70;;
25435;SDS011;13363;52.772;-3.890;2022-09-20T10:22:16;2.97;;;2.77;;
25435;SDS011;13363;52.772;-3.890;2022-09-20T10:32:46;2.80;;;2.70;;
25435;SDS011;13363;52.772;-3.890;2022-09-20T10:38:11;3.33;;;3.03;;
25435;SDS011;13363;52.772;-3.890;2022-09-20T10:43:51;3.07;;;2.87;;
25435;SDS011;13363;52.772;-3.890;2022-09-20T10:49:41;2.80;;;2.60;;
25435;SDS011;13363;52.772;-3.890;2022-09-20T10:55:31;3.37;;;3.07;;
25435;SDS011;13363;52.772;-3.890;2022-09-20T11:09:10;2.60;;;2.40;;
25435;SDS011;13363;52.772;-3.890;2022-09-20T11:11:44;2.80;;;2.60;;
25435;SDS011;13363;52.772;-3.890;2022-09-20T11:14:26;2.90;;;2.80;;
25435;SDS011;13363;52.772;-3.890;2022-09-20T11:19:49;2.33;;;2.23;;
25435;SDS011;13363;52.772;-3.890;2022-09-20T11:22:48;3.30;;;3.00;;
25435;SDS011;13363;52.772;-3.890;2022-09-20T11:25:36;3.17;;;2.97;;
25435;SDS011;13363;52.772;-3.890;2022-09-20T11:28:29;3.00;;;2.80;;
25435;SDS011;13363;52.772;-3.890;2022-09-20T11:33:39;2.43;;;2.33;;
25435;SDS011;13363;52.772;-3.890;2022-09-20T11:36:51;2.90;;;2.70;;
25435;SDS011;13363;52.772;-3.890;2022-09-20T11:39:13;3.03;;;2.77;;
25435;SDS011;13363;52.772;-3.890;2022-09-20T11:41:43;3.40;;;2.80;;
25435;SDS011;13363;52.772;-3.890;2022-09-20T11:44:11;2.80;;;2.60;;
25435;SDS011;13363;52.772;-3.890;2022-09-20T11:49:15;3.83;;;2.87;;
25435;SDS011;13363;52.772;-3.890;2022-09-20T11:52:13;4.33;;;2.90;;
25435;SDS011;13363;52.772;-3.890;2022-09-20T11:57:42;2.80;;;2.70;;
25435;SDS011;13363;52.772;-3.890;2022-09-20T12:00:09;4.17;;;2.87;;
25435;SDS011;13363;52.772;-3.890;2022-09-20T12:02:43;2.83;;;2.63;;
25435;SDS011;13363;52.772;-3.890;2022-09-20T12:05:26;2.33;;;2.13;;
25435;SDS011;13363;52.772;-3.890;2022-09-20T12:08:02;2.83;;;2.63;;
25435;SDS011;13363;52.772;-3.890;2022-09-20T12:10:40;2.70;;;2.50;;
25435;SDS011;13363;52.772;-3.890;2022-09-20T12:13:15;3.33;;;3.10;;
25435;SDS011;13363;52.772;-3.890;2022-09-20T12:15:59;3.30;;;3.00;;
25435;SDS011;13363;52.772;-3.890;2022-09-20T12:21:16;2.83;;;2.73;;
25435;SDS011;13363;52.772;-3.890;2022-09-20T12:28:52;3.60;;;2.90;;
25435;SDS011;13363;52.772;-3.890;2022-09-20T12:47:15;2.57;;;2.47;;
25435;SDS011;13363;52.772;-3.890;2022-09-20T12:50:12;2.60;;;2.50;;
25435;SDS011;13363;52.772;-3.890;2022-09-20T12:52:57;2.90;;;2.70;;
25435;SDS011;13363;52.772;-3.890;2022-09-20T13:03:36;3.23;;;2.97;;
25435;SDS011;13363;52.772;-3.890;2022-09-20T13:19:50;3.17;;;2.97;;
25435;SDS011;13363;52.772;-3.890;2022-09-20T13:22:22;3.90;;;3.60;;
25435;SDS011;13363;52.772;-3.890;2022-09-20T13:25:15;3.47;;;3.17;;
25435;SDS011;13363;52.772;-3.890;2022-09-20T13:27:58;2.80;;;2.60;;
25435;SDS011;13363;52.772;-3.890;2022-09-20T13:30:31;3.53;;;3.13;;
25435;SDS011;13363;52.772;-3.890;2022-09-20T13:35:52;3.17;;;2.97;;
25435;SDS011;13363;52.772;-3.890;2022-09-20T13:38:23;2.90;;;2.80;;
25435;SDS011;13363;52.772;-3.890;2022-09-20T13:40:57;3.20;;;3.00;;
25435;SDS011;13363;52.772;-3.890;2022-09-20T13:43:43;3.20;;;3.00;;
25435;SDS011;13363;52.772;-3.890;2022-09-20T13:46:22;2.50;;;2.30;;
25435;SDS011;13363;52.772;-3.890;2022-09-20T13:48:57;5.03;;;2.90;;
25435;SDS011;13363;52.772;-3.890;2022-09-20T13:51:33;4.47;;;2.73;;
25435;SDS011;13363;52.772;-3.890;2022-09-20T13:56:48;2.47;;;2.37;;
25435;SDS011;13363;52.772;-3.890;2022-09-20T13:59:15;2.93;;;2.70;;
25435;SDS011;13363;52.772;-3.890;2022-09-20T14:01:43;3.17;;;2.87;;
25435;SDS011;13363;52.772;-3.890;2022-09-20T14:04:15;2.17;;;2.07;;
25435;SDS011;13363;52.772;-3.890;2022-09-20T14:06:45;3.40;;;3.10;;
25435;SDS011;13363;52.772;-3.890;2022-09-20T14:09:17;2.60;;;2.40;;
25435;SDS011;13363;52.772;-3.890;2022-09-20T14:11:52;2.90;;;2.70;;
25435;SDS011;13363;52.772;-3.890;2022-09-20T14:14:20;3.23;;;3.03;;
25435;SDS011;13363;52.772;-3.890;2022-09-20T14:16:48;2.80;;;2.63;;
25435;SDS011;13363;52.772;-3.890;2022-09-20T14:19:17;3.37;;;2.63;;
25435;SDS011;13363;52.772;-3.890;2022-09-20T14:21:45;3.10;;;2.80;;
25435;SDS011;13363;52.772;-3.890;2022-09-20T14:27:01;2.60;;;2.50;;
25435;SDS011;13363;52.772;-3.890;2022-09-20T14:34:39;2.37;;;2.17;;
25435;SDS011;13363;52.772;-3.890;2022-09-20T14:37:11;2.37;;;2.20;;
25435;SDS011;13363;52.772;-3.890;2022-09-20T14:46:16;2.30;;;2.20;;
25435;SDS011;13363;52.772;-3.890;2022-09-20T14:48:42;2.67;;;2.50;;
25435;SDS011;13363;52.772;-3.890;2022-09-20T14:53:43;2.57;;;2.37;;
25435;SDS011;13363;52.772;-3.890;2022-09-20T14:56:12;2.37;;;2.27;;
25435;SDS011;13363;52.772;-3.890;2022-09-20T15:01:25;2.60;;;2.40;;
25435;SDS011;13363;52.772;-3.890;2022-09-20T15:03:51;2.60;;;2.40;;
25435;SDS011;13363;52.772;-3.890;2022-09-20T15:06:17;2.47;;;2.37;;
25435;SDS011;13363;52.772;-3.890;2022-09-20T15:08:44;2.40;;;2.30;;
25435;SDS011;13363;52.772;-3.890;2022-09-20T15:11:11;2.13;;;2.03;;
25435;SDS011;13363;52.772;-3.890;2022-09-20T15:13:42;2.17;;;1.97;;
25435;SDS011;13363;52.772;-3.890;2022-09-20T15:16:07;1.80;;;1.70;;
25435;SDS011;13363;52.772;-3.890;2022-09-20T15:18:38;1.97;;;1.87;;
25435;SDS011;13363;52.772;-3.890;2022-09-20T15:21:06;1.70;;;1.60;;
25435;SDS011;13363;52.772;-3.890;2022-09-20T15:23:32;1.40;;;1.40;;
25435;SDS011;13363;52.772;-3.890;2022-09-20T15:25:58;1.53;;;1.43;;
25435;SDS011;13363;52.772;-3.890;2022-09-20T15:28:26;1.60;;;1.50;;
25435;SDS011;13363;52.772;-3.890;2022-09-20T15:30:52;1.30;;;1.30;;
25435;SDS011;13363;52.772;-3.890;2022-09-20T15:33:19;1.40;;;1.40;;
25435;SDS011;13363;52.772;-3.890;2022-09-20T15:35:46;1.80;;;1.60;;
25435;SDS011;13363;52.772;-3.890;2022-09-20T15:38:12;1.60;;;1.50;;
25435;SDS011;13363;52.772;-3.890;2022-09-20T15:40:42;1.30;;;1.30;;
25435;SDS011;13363;52.772;-3.890;2022-09-20T15:43:11;1.63;;;1.40;;
25435;SDS011;13363;52.772;-3.890;2022-09-20T15:45:50;1.63;;;1.53;;
25435;SDS011;13363;52.772;-3.890;2022-09-20T15:48:24;1.33;;;1.33;;
25435;SDS011;13363;52.772;-3.890;2022-09-20T15:51:05;1.20;;;1.20;;
25435;SDS011;13363;52.772;-3.890;2022-09-20T15:53:36;1.20;;;1.20;;
25435;SDS011;13363;52.772;-3.890;2022-09-20T15:56:04;1.10;;;1.10;;
25435;SDS011;13363;52.772;-3.890;2022-09-20T15:58:42;1.10;;;1.10;;
25435;SDS011;13363;52.772;-3.890;2022-09-20T16:01:12;1.00;;;1.00;;
25435;SDS011;13363;52.772;-3.890;2022-09-20T16:03:42;1.20;;;1.17;;
25435;SDS011;13363;52.772;-3.890;2022-09-20T16:06:09;1.23;;;1.20;;
25435;SDS011;13363;52.772;-3.890;2022-09-20T16:08:37;1.20;;;1.20;;
25435;SDS011;13363;52.772;-3.890;2022-09-20T16:11:05;1.00;;;1.00;;
25435;SDS011;13363;52.772;-3.890;2022-09-20T16:13:33;0.90;;;0.90;;
25435;SDS011;13363;52.772;-3.890;2022-09-20T16:16:03;1.20;;;1.10;;
25435;SDS011;13363;52.772;-3.890;2022-09-20T16:18:30;1.33;;;1.23;;
25435;SDS011;13363;52.772;-3.890;2022-09-20T16:21:16;1.30;;;1.30;;
25435;SDS011;13363;52.772;-3.890;2022-09-20T16:23:47;0.83;;;0.83;;
25435;SDS011;13363;52.772;-3.890;2022-09-20T16:26:15;1.57;;;1.40;;
25435;SDS011;13363;52.772;-3.890;2022-09-20T16:28:41;1.30;;;1.30;;
25435;SDS011;13363;52.772;-3.890;2022-09-20T16:33:52;1.00;;;1.00;;
25435;SDS011;13363;52.772;-3.890;2022-09-20T16:36:18;1.20;;;1.20;;
25435;SDS011;13363;52.772;-3.890;2022-09-20T16:38:44;1.20;;;1.20;;
25435;SDS011;13363;52.772;-3.890;2022-09-20T16:41:10;1.93;;;1.30;;
25435;SDS011;13363;52.772;-3.890;2022-09-20T16:43:36;1.07;;;1.07;;
25435;SDS011;13363;52.772;-3.890;2022-09-20T16:46:03;1.30;;;1.30;;
25435;SDS011;13363;52.772;-3.890;2022-09-20T16:48:32;1.10;;;1.10;;
25435;SDS011;13363;52.772;-3.890;2022-09-20T16:50:58;1.47;;;1.30;;
25435;SDS011;13363;52.772;-3.890;2022-09-20T16:53:24;1.57;;;1.57;;
25435;SDS011;13363;52.772;-3.890;2022-09-20T16:55:50;1.80;;;1.70;;
25435;SDS011;13363;52.772;-3.890;2022-09-20T16:58:24;2.00;;;1.90;;
25435;SDS011;13363;52.772;-3.890;2022-09-20T17:00:52;2.40;;;2.20;;
25435;SDS011;13363;52.772;-3.890;2022-09-20T17:03:20;1.93;;;1.83;;
25435;SDS011;13363;52.772;-3.890;2022-09-20T17:05:51;2.40;;;2.30;;
25435;SDS011;13363;52.772;-3.890;2022-09-20T17:08:17;2.37;;;2.20;;
25435;SDS011;13363;52.772;-3.890;2022-09-20T17:10:43;2.30;;;2.20;;
25435;SDS011;13363;52.772;-3.890;2022-09-20T17:13:09;2.47;;;2.20;;
25435;SDS011;13363;52.772;-3.890;2022-09-20T17:15:35;2.50;;;2.33;;
25435;SDS011;13363;52.772;-3.890;2022-09-20T17:18:02;2.13;;;2.03;;
25435;SDS011;13363;52.772;-3.890;2022-09-20T17:20:29;2.67;;;2.40;;
25435;SDS011;13363;52.772;-3.890;2022-09-20T17:22:55;2.10;;;2.00;;
25435;SDS011;13363;52.772;-3.890;2022-09-20T17:25:22;2.63;;;2.43;;
25435;SDS011;13363;52.772;-3.890;2022-09-20T17:27:51;2.50;;;2.30;;
25435;SDS011;13363;52.772;-3.890;2022-09-20T17:30:17;2.10;;;2.00;;
25435;SDS011;13363;52.772;-3.890;2022-09-20T17:32:43;3.73;;;2.30;;
25435;SDS011;13363;52.772;-3.890;2022-09-20T17:35:14;2.60;;;2.50;;
25435;SDS011;13363;52.772;-3.890;2022-09-20T17:37:40;2.20;;;2.10;;
25435;SDS011;13363;52.772;-3.890;2022-09-20T17:40:06;2.40;;;2.20;;
25435;SDS011;13363;52.772;-3.890;2022-09-20T17:42:32;2.20;;;2.00;;
25435;SDS011;13363;52.772;-3.890;2022-09-20T17:44:59;2.13;;;2.03;;
25435;SDS011;13363;52.772;-3.890;2022-09-20T17:47:25;2.33;;;2.00;;
25435;SDS011;13363;52.772;-3.890;2022-09-20T17:49:51;2.37;;;2.27;;
25435;SDS011;13363;52.772;-3.890;2022-09-20T17:52:18;2.27;;;2.17;;
25435;SDS011;13363;52.772;-3.890;2022-09-20T17:57:35;2.47;;;2.10;;
25435;SDS011;13363;52.772;-3.890;2022-09-20T18:00:01;2.00;;;1.90;;
25435;SDS011;13363;52.772;-3.890;2022-09-20T18:02:28;2.47;;;2.37;;
25435;SDS011;13363;52.772;-3.890;2022-09-20T18:04:55;1.87;;;1.77;;
25435;SDS011;13363;52.772;-3.890;2022-09-20T18:07:21;2.30;;;2.20;;
25435;SDS011;13363;52.772;-3.890;2022-09-20T18:09:46;3.07;;;2.30;;
25435;SDS011;13363;52.772;-3.890;2022-09-20T18:12:12;2.40;;;2.20;;
25435;SDS011;13363;52.772;-3.890;2022-09-20T18:14:38;2.37;;;2.27;;
25435;SDS011;13363;52.772;-3.890;2022-09-20T18:17:04;2.27;;;2.17;;
25435;SDS011;13363;52.772;-3.890;2022-09-20T18:19:31;2.20;;;2.00;;
25435;SDS011;13363;52.772;-3.890;2022-09-20T18:21:58;2.17;;;2.07;;
25435;SDS011;13363;52.772;-3.890;2022-09-20T18:24:25;2.60;;;1.73;;
25435;SDS011;13363;52.772;-3.890;2022-09-20T18:26:50;2.70;;;2.50;;
25435;SDS011;13363;52.772;-3.890;2022-09-20T18:29:17;2.70;;;2.50;;
25435;SDS011;13363;52.772;-3.890;2022-09-20T18:31:47;2.60;;;2.50;;
25435;SDS011;13363;52.772;-3.890;2022-09-20T18:34:18;2.70;;;2.20;;
25435;SDS011;13363;52.772;-3.890;2022-09-20T18:36:46;3.03;;;2.50;;
25435;SDS011;13363;52.772;-3.890;2022-09-20T18:39:23;2.27;;;2.17;;
25435;SDS011;13363;52.772;-3.890;2022-09-20T18:41:51;2.60;;;2.17;;
25435;SDS011;13363;52.772;-3.890;2022-09-20T18:44:17;2.77;;;2.57;;
25435;SDS011;13363;52.772;-3.890;2022-09-20T18:46:44;2.40;;;2.30;;
25435;SDS011;13363;52.772;-3.890;2022-09-20T18:49:11;2.57;;;2.40;;
25435;SDS011;13363;52.772;-3.890;2022-09-20T18:51:39;2.50;;;2.30;;
25435;SDS011;13363;52.772;-3.890;2022-09-20T18:54:06;2.10;;;2.00;;
25435;SDS011;13363;52.772;-3.890;2022-09-20T18:56:34;2.30;;;2.20;;
25435;SDS011;13363;52.772;-3.890;2022-09-20T18:59:05;2.37;;;2.17;;
25435;SDS011;13363;52.772;-3.890;2022-09-20T19:01:58;2.07;;;1.97;;
25435;SDS011;13363;52.772;-3.890;2022-09-20T19:04:50;2.40;;;2.30;;
25435;SDS011;13363;52.772;-3.890;2022-09-20T19:12:45;2.67;;;2.47;;
25435;SDS011;13363;52.772;-3.890;2022-09-20T19:15:40;2.10;;;2.00;;
25435;SDS011;13363;52.772;-3.890;2022-09-20T19:21:29;2.50;;;2.40;;
25435;SDS011;13363;52.772;-3.890;2022-09-20T19:26:45;2.20;;;2.10;;
25435;SDS011;13363;52.772;-3.890;2022-09-20T19:29:22;2.60;;;2.40;;
25435;SDS011;13363;52.772;-3.890;2022-09-20T19:31:51;2.37;;;2.17;;
25435;SDS011;13363;52.772;-3.890;2022-09-20T19:34:21;2.10;;;2.00;;
25435;SDS011;13363;52.772;-3.890;2022-09-20T19:44:52;2.10;;;2.00;;
25435;SDS011;13363;52.772;-3.890;2022-09-20T19:47:34;2.80;;;2.60;;
25435;SDS011;13363;52.772;-3.890;2022-09-20T19:50:14;2.80;;;2.50;;
25435;SDS011;13363;52.772;-3.890;2022-09-20T19:52:58;4.30;;;2.40;;
25435;SDS011;13363;52.772;-3.890;2022-09-20T19:55:31;2.07;;;1.97;;
25435;SDS011;13363;52.772;-3.890;2022-09-20T19:58:02;2.57;;;2.37;;
25435;SDS011;13363;52.772;-3.890;2022-09-20T20:00:29;2.10;;;2.00;;
25435;SDS011;13363;52.772;-3.890;2022-09-20T20:02:56;2.00;;;1.90;;
25435;SDS011;13363;52.772;-3.890;2022-09-20T20:05:22;1.93;;;1.83;;
25435;SDS011;13363;52.772;-3.890;2022-09-20T20:22:17;2.40;;;2.30;;
25435;SDS011;13363;52.772;-3.890;2022-09-20T20:24:57;2.13;;;2.03;;
25435;SDS011;13363;52.772;-3.890;2022-09-20T20:27:23;2.30;;;2.20;;
25435;SDS011;13363;52.772;-3.890;2022-09-20T20:29:52;2.27;;;2.17;;
25435;SDS011;13363;52.772;-3.890;2022-09-20T20:32:19;2.30;;;2.20;;
25435;SDS011;13363;52.772;-3.890;2022-09-20T20:34:45;2.17;;;2.07;;
25435;SDS011;13363;52.772;-3.890;2022-09-20T20:37:11;2.53;;;2.30;;
25435;SDS011;13363;52.772;-3.890;2022-09-20T20:39:38;2.37;;;2.27;;
25435;SDS011;13363;52.772;-3.890;2022-09-20T20:42:04;2.27;;;2.07;;
25435;SDS011;13363;52.772;-3.890;2022-09-20T20:44:31;2.30;;;2.20;;
25435;SDS011;13363;52.772;-3.890;2022-09-20T20:47:01;2.43;;;2.23;;
25435;SDS011;13363;52.772;-3.890;2022-09-20T20:49:27;2.60;;;2.50;;
25435;SDS011;13363;52.772;-3.890;2022-09-20T20:51:53;2.40;;;2.30;;
25435;SDS011;13363;52.772;-3.890;2022-09-20T20:54:20;2.33;;;2.20;;
25435;SDS011;13363;52.772;-3.890;2022-09-20T20:56:46;2.10;;;2.00;;
25435;SDS011;13363;52.772;-3.890;2022-09-20T20:59:12;2.00;;;1.90;;
25435;SDS011;13363;52.772;-3.890;2022-09-20T21:01:39;2.80;;;2.40;;
25435;SDS011;13363;52.772;-3.890;2022-09-20T21:04:11;2.20;;;2.10;;
25435;SDS011;13363;52.772;-3.890;2022-09-20T21:06:39;2.60;;;2.40;;
25435;SDS011;13363;52.772;-3.890;2022-09-20T21:09:06;3.70;;;2.10;;
25435;SDS011;13363;52.772;-3.890;2022-09-20T21:11:35;2.20;;;2.10;;
25435;SDS011;13363;52.772;-3.890;2022-09-20T21:14:03;2.10;;;2.00;;
25435;SDS011;13363;52.772;-3.890;2022-09-20T21:16:35;2.40;;;2.20;;
25435;SDS011;13363;52.772;-3.890;2022-09-20T21:19:02;2.33;;;2.23;;
25435;SDS011;13363;52.772;-3.890;2022-09-20T21:21:30;2.30;;;1.97;;
25435;SDS011;13363;52.772;-3.890;2022-09-20T21:24:01;2.90;;;2.70;;